sensor_id;sensor_type;location;lat;lon;timestamp;P1;durP1;ratioP1;P2;durP2;ratioP2
49310;SDS011;35177;45.900;5.946;2023-03-23T10:27:38;3.78;;;1.40;;
49310;SDS011;35177;45.900;5.946;2023-03-23T10:30:55;4.82;;;1.10;;
49310;SDS011;35177;45.900;5.946;2023-03-23T10:36:06;2.72;;;1.33;;
49310;SDS011;35177;45.900;5.946;2023-03-23T10:38:36;4.07;;;1.30;;
49310;SDS011;35177;45.900;5.946;2023-03-23T10:41:10;3.20;;;1.52;;
49310;SDS011;35177;45.900;5.946;2023-03-23T10:43:43;1.75;;;1.27;;
49310;SDS011;35177;45.900;5.946;2023-03-23T10:49:13;2.67;;;1.60;;
49310;SDS011;35177;45.900;5.946;2023-03-23T10:51:42;2.22;;;1.40;;
49310;SDS011;35177;45.900;5.946;2023-03-23T10:54:11;2.35;;;1.20;;
49310;SDS011;35177;45.900;5.946;2023-03-23T10:56:41;5.43;;;1.60;;
49310;SDS011;35177;45.900;5.946;2023-03-23T10:59:20;4.80;;;1.20;;
49310;SDS011;35177;45.900;5.946;2023-03-23T11:01:52;3.58;;;1.52;;
49310;SDS011;35177;45.900;5.946;2023-03-23T11:04:20;1.92;;;1.20;;
49310;SDS011;35177;45.900;5.946;2023-03-23T11:06:47;2.97;;;1.30;;
49310;SDS011;35177;45.900;5.946;2023-03-23T11:09:18;2.40;;;1.17;;
49310;SDS011;35177;45.900;5.946;2023-03-23T11:11:52;3.22;;;1.40;;
49310;SDS011;35177;45.900;5.946;2023-03-23T11:16:51;5.13;;;1.65;;
49310;SDS011;35177;45.900;5.946;2023-03-23T11:19:23;3.53;;;1.50;;
49310;SDS011;35177;45.900;5.946;2023-03-23T11:21:53;4.78;;;1.38;;
49310;SDS011;35177;45.900;5.946;2023-03-23T11:24:34;2.03;;;1.20;;
49310;SDS011;35177;45.900;5.946;2023-03-23T11:27:10;2.33;;;1.70;;
49310;SDS011;35177;45.900;5.946;2023-03-23T11:29:47;3.55;;;1.55;;
49310;SDS011;35177;45.900;5.946;2023-03-23T11:32:18;3.05;;;1.30;;
49310;SDS011;35177;45.900;5.946;2023-03-23T11:34:48;2.58;;;1.20;;
49310;SDS011;35177;45.900;5.946;2023-03-23T11:45:26;4.55;;;1.40;;
49310;SDS011;35177;45.900;5.946;2023-03-23T11:47:58;1.98;;;1.10;;
49310;SDS011;35177;45.900;5.946;2023-03-23T11:50:25;2.28;;;1.10;;
49310;SDS011;35177;45.900;5.946;2023-03-23T11:56:09;2.47;;;1.40;;
49310;SDS011;35177;45.900;5.946;2023-03-23T11:58:38;1.80;;;1.27;;
49310;SDS011;35177;45.900;5.946;2023-03-23T12:06:31;1.88;;;1.30;;
49310;SDS011;35177;45.900;5.946;2023-03-23T12:28:03;3.72;;;1.38;;
49310;SDS011;35177;45.900;5.946;2023-03-23T12:44:31;2.45;;;1.50;;
49310;SDS011;35177;45.900;5.946;2023-03-23T12:47:10;2.13;;;1.50;;
49310;SDS011;35177;45.900;5.946;2023-03-23T12:49:51;2.22;;;1.48;;
49310;SDS011;35177;45.900;5.946;2023-03-23T12:52:24;2.95;;;1.50;;
49310;SDS011;35177;45.900;5.946;2023-03-23T12:58:07;2.25;;;1.65;;
49310;SDS011;35177;45.900;5.946;2023-03-23T13:11:51;3.10;;;1.30;;
49310;SDS011;35177;45.900;5.946;2023-03-23T13:25:10;2.28;;;1.50;;
49310;SDS011;35177;45.900;5.946;2023-03-23T13:27:40;1.98;;;1.40;;
49310;SDS011;35177;45.900;5.946;2023-03-23T13:30:17;1.58;;;1.40;;
49310;SDS011;35177;45.900;5.946;2023-03-23T13:32:49;1.92;;;1.30;;
49310;SDS011;35177;45.900;5.946;2023-03-23T13:35:16;1.45;;;1.33;;
49310;SDS011;35177;45.900;5.946;2023-03-23T13:37:49;1.90;;;1.25;;
49310;SDS011;35177;45.900;5.946;2023-03-23T13:40:34;2.03;;;1.52;;
49310;SDS011;35177;45.900;5.946;2023-03-23T13:43:01;1.65;;;1.30;;
49310;SDS011;35177;45.900;5.946;2023-03-23T13:50:49;3.00;;;1.30;;
49310;SDS011;35177;45.900;5.946;2023-03-23T13:53:24;2.08;;;1.70;;
49310;SDS011;35177;45.900;5.946;2023-03-23T13:55:52;1.50;;;1.40;;
49310;SDS011;35177;45.900;5.946;2023-03-23T13:58:43;2.78;;;1.30;;
49310;SDS011;35177;45.900;5.946;2023-03-23T14:01:17;2.90;;;1.42;;
49310;SDS011;35177;45.900;5.946;2023-03-23T14:03:49;2.72;;;1.48;;
49310;SDS011;35177;45.900;5.946;2023-03-23T14:06:19;2.63;;;1.63;;
49310;SDS011;35177;45.900;5.946;2023-03-23T14:08:50;4.93;;;1.50;;
49310;SDS011;35177;45.900;5.946;2023-03-23T14:11:19;4.28;;;1.70;;
49310;SDS011;35177;45.900;5.946;2023-03-23T14:16:26;10.05;;;2.63;;
49310;SDS011;35177;45.900;5.946;2023-03-23T14:19:24;6.97;;;2.50;;
49310;SDS011;35177;45.900;5.946;2023-03-23T14:21:55;15.00;;;2.40;;
49310;SDS011;35177;45.900;5.946;2023-03-23T14:26:51;14.40;;;2.70;;
49310;SDS011;35177;45.900;5.946;2023-03-23T14:29:19;8.18;;;2.20;;
49310;SDS011;35177;45.900;5.946;2023-03-23T14:31:48;11.55;;;2.30;;
49310;SDS011;35177;45.900;5.946;2023-03-23T14:34:18;7.78;;;2.42;;
49310;SDS011;35177;45.900;5.946;2023-03-23T14:36:44;6.30;;;2.30;;
49310;SDS011;35177;45.900;5.946;2023-03-23T14:39:21;6.78;;;2.60;;
49310;SDS011;35177;45.900;5.946;2023-03-23T14:41:49;8.23;;;2.20;;
49310;SDS011;35177;45.900;5.946;2023-03-23T14:44:23;7.70;;;2.00;;
49310;SDS011;35177;45.900;5.946;2023-03-23T14:46:50;5.63;;;2.28;;
49310;SDS011;35177;45.900;5.946;2023-03-23T14:49:18;8.43;;;2.10;;
49310;SDS011;35177;45.900;5.946;2023-03-23T14:51:47;5.03;;;2.10;;
49310;SDS011;35177;45.900;5.946;2023-03-23T14:54:14;7.78;;;2.03;;
49310;SDS011;35177;45.900;5.946;2023-03-23T14:56:39;8.95;;;2.13;;
49310;SDS011;35177;45.900;5.946;2023-03-23T14:59:05;5.00;;;1.90;;
49310;SDS011;35177;45.900;5.946;2023-03-23T15:01:33;7.15;;;2.60;;
49310;SDS011;35177;45.900;5.946;2023-03-23T15:04:08;9.10;;;2.03;;
49310;SDS011;35177;45.900;5.946;2023-03-23T15:06:37;5.70;;;1.85;;
49310;SDS011;35177;45.900;5.946;2023-03-23T15:09:13;6.68;;;2.30;;
49310;SDS011;35177;45.900;5.946;2023-03-23T15:11:43;4.22;;;2.28;;
49310;SDS011;35177;45.900;5.946;2023-03-23T15:14:24;5.28;;;1.67;;
49310;SDS011;35177;45.900;5.946;2023-03-23T15:16:53;4.28;;;1.75;;
49310;SDS011;35177;45.900;5.946;2023-03-23T15:19:23;4.82;;;1.90;;
49310;SDS011;35177;45.900;5.946;2023-03-23T15:22:03;9.38;;;1.80;;
49310;SDS011;35177;45.900;5.946;2023-03-23T15:24:33;4.82;;;1.73;;
49310;SDS011;35177;45.900;5.946;2023-03-23T15:27:11;9.05;;;1.70;;
49310;SDS011;35177;45.900;5.946;2023-03-23T15:29:48;3.87;;;1.70;;
49310;SDS011;35177;45.900;5.946;2023-03-23T15:32:24;4.97;;;1.60;;
49310;SDS011;35177;45.900;5.946;2023-03-23T15:34:54;3.95;;;1.70;;
49310;SDS011;35177;45.900;5.946;2023-03-23T15:37:31;3.58;;;1.80;;
49310;SDS011;35177;45.900;5.946;2023-03-23T15:39:57;3.58;;;1.50;;
49310;SDS011;35177;45.900;5.946;2023-03-23T15:42:28;4.55;;;1.55;;
49310;SDS011;35177;45.900;5.946;2023-03-23T15:47:43;4.65;;;1.88;;
49310;SDS011;35177;45.900;5.946;2023-03-23T15:52:34;4.65;;;1.70;;
49310;SDS011;35177;45.900;5.946;2023-03-23T15:55:00;2.53;;;1.73;;
49310;SDS011;35177;45.900;5.946;2023-03-23T15:57:25;3.33;;;1.60;;
49310;SDS011;35177;45.900;5.946;2023-03-23T15:59:51;4.72;;;2.00;;
49310;SDS011;35177;45.900;5.946;2023-03-23T16:02:20;5.47;;;1.60;;
49310;SDS011;35177;45.900;5.946;2023-03-23T16:04:47;2.92;;;1.70;;
49310;SDS011;35177;45.900;5.946;2023-03-23T16:07:13;5.05;;;1.73;;
49310;SDS011;35177;45.900;5.946;2023-03-23T16:09:39;1.98;;;1.40;;
49310;SDS011;35177;45.900;5.946;2023-03-23T16:12:11;2.58;;;1.70;;
49310;SDS011;35177;45.900;5.946;2023-03-23T16:14:38;5.13;;;1.52;;
49310;SDS011;35177;45.900;5.946;2023-03-23T16:17:05;2.03;;;1.33;;
49310;SDS011;35177;45.900;5.946;2023-03-23T16:19:30;2.95;;;1.63;;
49310;SDS011;35177;45.900;5.946;2023-03-23T16:21:56;3.58;;;1.52;;
49310;SDS011;35177;45.900;5.946;2023-03-23T16:24:21;3.00;;;1.33;;
49310;SDS011;35177;45.900;5.946;2023-03-23T16:26:47;4.05;;;1.77;;
49310;SDS011;35177;45.900;5.946;2023-03-23T16:29:14;2.03;;;1.42;;
49310;SDS011;35177;45.900;5.946;2023-03-23T16:31:40;1.50;;;1.40;;
49310;SDS011;35177;45.900;5.946;2023-03-23T16:34:06;7.88;;;1.50;;
49310;SDS011;35177;45.900;5.946;2023-03-23T16:36:32;2.55;;;1.48;;
49310;SDS011;35177;45.900;5.946;2023-03-23T16:38:57;3.33;;;1.50;;
49310;SDS011;35177;45.900;5.946;2023-03-23T16:41:23;2.47;;;1.40;;
49310;SDS011;35177;45.900;5.946;2023-03-23T16:43:48;2.33;;;1.45;;
49310;SDS011;35177;45.900;5.946;2023-03-23T16:46:14;3.60;;;1.75;;
49310;SDS011;35177;45.900;5.946;2023-03-23T16:48:39;1.95;;;1.23;;
49310;SDS011;35177;45.900;5.946;2023-03-23T16:51:05;2.20;;;1.33;;
49310;SDS011;35177;45.900;5.946;2023-03-23T16:53:31;3.97;;;1.30;;
49310;SDS011;35177;45.900;5.946;2023-03-23T16:55:57;3.38;;;1.45;;
49310;SDS011;35177;45.900;5.946;2023-03-23T16:58:23;2.15;;;1.70;;
49310;SDS011;35177;45.900;5.946;2023-03-23T17:00:49;4.70;;;1.45;;
49310;SDS011;35177;45.900;5.946;2023-03-23T17:03:16;4.82;;;1.52;;
49310;SDS011;35177;45.900;5.946;2023-03-23T17:05:42;2.83;;;1.48;;
49310;SDS011;35177;45.900;5.946;2023-03-23T17:08:08;1.77;;;1.27;;
49310;SDS011;35177;45.900;5.946;2023-03-23T17:10:36;3.63;;;1.50;;
49310;SDS011;35177;45.900;5.946;2023-03-23T17:13:02;1.60;;;1.40;;
49310;SDS011;35177;45.900;5.946;2023-03-23T17:15:28;1.65;;;1.20;;
49310;SDS011;35177;45.900;5.946;2023-03-23T17:17:53;1.75;;;1.40;;
49310;SDS011;35177;45.900;5.946;2023-03-23T17:20:19;4.22;;;1.40;;
49310;SDS011;35177;45.900;5.946;2023-03-23T17:22:45;4.20;;;1.48;;
49310;SDS011;35177;45.900;5.946;2023-03-23T17:25:10;2.05;;;1.50;;
49310;SDS011;35177;45.900;5.946;2023-03-23T17:27:36;1.83;;;1.45;;
49310;SDS011;35177;45.900;5.946;2023-03-23T17:30:05;2.13;;;1.50;;
49310;SDS011;35177;45.900;5.946;2023-03-23T17:32:31;2.80;;;1.50;;
49310;SDS011;35177;45.900;5.946;2023-03-23T17:34:57;4.47;;;1.50;;
49310;SDS011;35177;45.900;5.946;2023-03-23T17:37:23;8.38;;;1.40;;
49310;SDS011;35177;45.900;5.946;2023-03-23T17:39:48;3.55;;;1.33;;
49310;SDS011;35177;45.900;5.946;2023-03-23T17:42:14;2.45;;;1.40;;
49310;SDS011;35177;45.900;5.946;2023-03-23T17:44:39;2.28;;;1.48;;
49310;SDS011;35177;45.900;5.946;2023-03-23T17:47:05;3.72;;;1.33;;
49310;SDS011;35177;45.900;5.946;2023-03-23T17:49:31;2.20;;;1.42;;
49310;SDS011;35177;45.900;5.946;2023-03-23T17:51:57;2.78;;;1.27;;
49310;SDS011;35177;45.900;5.946;2023-03-23T17:54:24;1.85;;;1.25;;
49310;SDS011;35177;45.900;5.946;2023-03-23T17:56:55;1.60;;;1.10;;
49310;SDS011;35177;45.900;5.946;2023-03-23T17:59:24;1.85;;;1.33;;
49310;SDS011;35177;45.900;5.946;2023-03-23T18:01:50;1.95;;;1.13;;
49310;SDS011;35177;45.900;5.946;2023-03-23T18:04:16;2.55;;;1.30;;
49310;SDS011;35177;45.900;5.946;2023-03-23T18:06:43;1.65;;;1.30;;
49310;SDS011;35177;45.900;5.946;2023-03-23T18:09:10;2.60;;;1.40;;
49310;SDS011;35177;45.900;5.946;2023-03-23T18:11:36;2.42;;;1.30;;
49310;SDS011;35177;45.900;5.946;2023-03-23T18:14:01;2.40;;;1.63;;
49310;SDS011;35177;45.900;5.946;2023-03-23T18:16:27;3.15;;;1.38;;
49310;SDS011;35177;45.900;5.946;2023-03-23T18:18:52;3.10;;;1.52;;
49310;SDS011;35177;45.900;5.946;2023-03-23T18:21:18;3.60;;;1.50;;
49310;SDS011;35177;45.900;5.946;2023-03-23T18:23:44;1.42;;;1.17;;
49310;SDS011;35177;45.900;5.946;2023-03-23T18:26:11;2.08;;;1.30;;
49310;SDS011;35177;45.900;5.946;2023-03-23T18:28:37;4.20;;;1.40;;
49310;SDS011;35177;45.900;5.946;2023-03-23T18:31:08;2.42;;;1.40;;
49310;SDS011;35177;45.900;5.946;2023-03-23T18:33:35;1.80;;;1.63;;
49310;SDS011;35177;45.900;5.946;2023-03-23T18:36:01;3.28;;;1.60;;
49310;SDS011;35177;45.900;5.946;2023-03-23T18:38:28;3.35;;;1.55;;
49310;SDS011;35177;45.900;5.946;2023-03-23T18:40:53;2.35;;;1.30;;
49310;SDS011;35177;45.900;5.946;2023-03-23T18:43:19;2.03;;;1.58;;
49310;SDS011;35177;45.900;5.946;2023-03-23T18:45:49;1.63;;;1.20;;
49310;SDS011;35177;45.900;5.946;2023-03-23T18:48:15;1.80;;;1.40;;
49310;SDS011;35177;45.900;5.946;2023-03-23T18:50:44;3.03;;;1.60;;
49310;SDS011;35177;45.900;5.946;2023-03-23T18:53:10;2.78;;;1.40;;
49310;SDS011;35177;45.900;5.946;2023-03-23T18:55:38;1.85;;;1.15;;
49310;SDS011;35177;45.900;5.946;2023-03-23T18:58:04;1.77;;;1.38;;
49310;SDS011;35177;45.900;5.946;2023-03-23T19:00:30;5.63;;;1.40;;
49310;SDS011;35177;45.900;5.946;2023-03-23T19:02:57;1.80;;;1.30;;
49310;SDS011;35177;45.900;5.946;2023-03-23T19:05:23;1.98;;;1.25;;
49310;SDS011;35177;45.900;5.946;2023-03-23T19:07:49;1.65;;;1.33;;
49310;SDS011;35177;45.900;5.946;2023-03-23T19:10:17;1.80;;;1.30;;
49310;SDS011;35177;45.900;5.946;2023-03-23T19:12:44;2.08;;;1.30;;
49310;SDS011;35177;45.900;5.946;2023-03-23T19:15:11;5.25;;;1.52;;
49310;SDS011;35177;45.900;5.946;2023-03-23T19:17:36;2.03;;;1.60;;
49310;SDS011;35177;45.900;5.946;2023-03-23T19:20:02;2.03;;;1.13;;
49310;SDS011;35177;45.900;5.946;2023-03-23T19:22:28;3.70;;;1.35;;
49310;SDS011;35177;45.900;5.946;2023-03-23T19:24:53;2.25;;;1.30;;
49310;SDS011;35177;45.900;5.946;2023-03-23T19:27:19;3.47;;;1.48;;
49310;SDS011;35177;45.900;5.946;2023-03-23T19:29:44;2.08;;;1.42;;
49310;SDS011;35177;45.900;5.946;2023-03-23T19:32:10;19.90;;;2.22;;
49310;SDS011;35177;45.900;5.946;2023-03-23T19:34:35;3.35;;;1.30;;
49310;SDS011;35177;45.900;5.946;2023-03-23T19:37:02;2.53;;;1.55;;
49310;SDS011;35177;45.900;5.946;2023-03-23T19:39:28;2.25;;;1.33;;
49310;SDS011;35177;45.900;5.946;2023-03-23T19:41:54;2.47;;;1.48;;
49310;SDS011;35177;45.900;5.946;2023-03-23T19:44:20;2.47;;;1.70;;
49310;SDS011;35177;45.900;5.946;2023-03-23T19:46:45;1.85;;;1.40;;
49310;SDS011;35177;45.900;5.946;2023-03-23T19:49:12;3.53;;;1.48;;
49310;SDS011;35177;45.900;5.946;2023-03-23T19:51:37;6.90;;;1.50;;
49310;SDS011;35177;45.900;5.946;2023-03-23T19:54:03;1.75;;;1.48;;
49310;SDS011;35177;45.900;5.946;2023-03-23T19:56:31;1.65;;;1.55;;
49310;SDS011;35177;45.900;5.946;2023-03-23T19:58:58;2.97;;;1.45;;
49310;SDS011;35177;45.900;5.946;2023-03-23T20:01:23;2.42;;;1.60;;
49310;SDS011;35177;45.900;5.946;2023-03-23T20:03:49;3.13;;;1.75;;
49310;SDS011;35177;45.900;5.946;2023-03-23T20:06:15;6.50;;;1.55;;
49310;SDS011;35177;45.900;5.946;2023-03-23T20:08:43;1.75;;;1.33;;
49310;SDS011;35177;45.900;5.946;2023-03-23T20:11:11;3.92;;;1.20;;
49310;SDS011;35177;45.900;5.946;2023-03-23T20:13:39;3.22;;;1.48;;
49310;SDS011;35177;45.900;5.946;2023-03-23T20:16:05;2.10;;;1.70;;
49310;SDS011;35177;45.900;5.946;2023-03-23T20:18:31;3.60;;;1.40;;
49310;SDS011;35177;45.900;5.946;2023-03-23T20:21:04;4.75;;;1.67;;
49310;SDS011;35177;45.900;5.946;2023-03-23T20:23:34;2.55;;;1.73;;
49310;SDS011;35177;45.900;5.946;2023-03-23T20:26:02;2.45;;;1.40;;
49310;SDS011;35177;45.900;5.946;2023-03-23T20:28:33;3.72;;;1.75;;
49310;SDS011;35177;45.900;5.946;2023-03-23T20:31:03;6.05;;;1.80;;
49310;SDS011;35177;45.900;5.946;2023-03-23T20:33:31;2.33;;;1.55;;
49310;SDS011;35177;45.900;5.946;2023-03-23T20:35:57;3.30;;;1.65;;
49310;SDS011;35177;45.900;5.946;2023-03-23T20:38:24;4.05;;;1.55;;
49310;SDS011;35177;45.900;5.946;2023-03-23T20:40:49;5.55;;;1.80;;
49310;SDS011;35177;45.900;5.946;2023-03-23T20:43:17;3.95;;;1.95;;
49310;SDS011;35177;45.900;5.946;2023-03-23T20:45:42;3.13;;;1.60;;
49310;SDS011;35177;45.900;5.946;2023-03-23T20:48:08;2.72;;;1.52;;
49310;SDS011;35177;45.900;5.946;2023-03-23T20:50:33;3.72;;;2.00;;
49310;SDS011;35177;45.900;5.946;2023-03-23T20:52:59;2.75;;;2.05;;
49310;SDS011;35177;45.900;5.946;2023-03-23T20:55:24;3.83;;;1.90;;
49310;SDS011;35177;45.900;5.946;2023-03-23T20:57:51;3.13;;;1.83;;
49310;SDS011;35177;45.900;5.946;2023-03-23T21:00:17;3.03;;;1.73;;
49310;SDS011;35177;45.900;5.946;2023-03-23T21:02:42;2.75;;;2.03;;
49310;SDS011;35177;45.900;5.946;2023-03-23T21:05:08;2.50;;;1.60;;
49310;SDS011;35177;45.900;5.946;2023-03-23T21:07:34;2.05;;;1.67;;
49310;SDS011;35177;45.900;5.946;2023-03-23T21:10:00;5.20;;;1.75;;
49310;SDS011;35177;45.900;5.946;2023-03-23T21:12:26;2.55;;;1.70;;
49310;SDS011;35177;45.900;5.946;2023-03-23T21:14:51;2.80;;;1.77;;
49310;SDS011;35177;45.900;5.946;2023-03-23T21:17:17;3.00;;;1.90;;
49310;SDS011;35177;45.900;5.946;2023-03-23T21:19:42;2.60;;;1.70;;
49310;SDS011;35177;45.900;5.946;2023-03-23T21:22:08;3.45;;;1.80;;
49310;SDS011;35177;45.900;5.946;2023-03-23T21:24:33;2.40;;;1.85;;
49310;SDS011;35177;45.900;5.946;2023-03-23T21:27:01;2.80;;;1.83;;
49310;SDS011;35177;45.900;5.946;2023-03-23T21:29:27;3.15;;;1.73;;
49310;SDS011;35177;45.900;5.946;2023-03-23T21:31:53;2.35;;;1.60;;
49310;SDS011;35177;45.900;5.946;2023-03-23T21:34:19;3.97;;;2.05;;
49310;SDS011;35177;45.900;5.946;2023-03-23T21:36:44;4.82;;;1.70;;
49310;SDS011;35177;45.900;5.946;2023-03-23T21:39:10;2.70;;;2.00;;
49310;SDS011;35177;45.900;5.946;2023-03-23T21:41:35;4.82;;;1.70;;
49310;SDS011;35177;45.900;5.946;2023-03-23T21:44:02;2.15;;;1.40;;
49310;SDS011;35177;45.900;5.946;2023-03-23T21:46:34;1.90;;;1.63;;
49310;SDS011;35177;45.900;5.946;2023-03-23T21:49:02;2.42;;;1.83;;
